sensor_id;sensor_type;location;lat;lon;timestamp;pressure;altitude;pressure_sealevel;temperature;humidity
3598;BME280;1813;52.016;8.714;2023-07-29T00:02:05;-16261.94;;;-139.71;82.86
3598;BME280;1813;52.016;8.714;2023-07-29T00:04:39;-16261.94;;;-139.71;83.09
3598;BME280;1813;52.016;8.714;2023-07-29T00:07:15;-16261.94;;;-139.71;83.14
3598;BME280;1813;52.016;8.714;2023-07-29T00:09:49;-16261.94;;;-139.71;83.06
3598;BME280;1813;52.016;8.714;2023-07-29T00:12:23;-16261.94;;;-139.71;82.75
3598;BME280;1813;52.016;8.714;2023-07-29T00:14:57;-16261.94;;;-139.71;82.84
3598;BME280;1813;52.016;8.714;2023-07-29T00:17:31;-16261.94;;;-139.71;82.89
3598;BME280;1813;52.016;8.714;2023-07-29T00:20:06;-16261.94;;;-139.71;82.61
3598;BME280;1813;52.016;8.714;2023-07-29T00:22:43;-16261.94;;;-139.71;82.90
3598;BME280;1813;52.016;8.714;2023-07-29T00:25:17;-16261.94;;;-139.71;82.58
3598;BME280;1813;52.016;8.714;2023-07-29T00:27:51;-16261.94;;;-139.71;82.42
3598;BME280;1813;52.016;8.714;2023-07-29T00:30:26;-16261.94;;;-139.71;82.39
3598;BME280;1813;52.016;8.714;2023-07-29T00:33:00;-16261.94;;;-139.71;82.16
3598;BME280;1813;52.016;8.714;2023-07-29T00:35:34;-16261.94;;;-139.71;82.16
3598;BME280;1813;52.016;8.714;2023-07-29T00:38:11;-16261.94;;;-139.71;81.91
3598;BME280;1813;52.016;8.714;2023-07-29T00:40:44;-16261.94;;;-139.71;82.07
3598;BME280;1813;52.016;8.714;2023-07-29T00:43:19;-16261.94;;;-139.71;82.01
3598;BME280;1813;52.016;8.714;2023-07-29T00:45:53;-16261.94;;;-139.71;82.00
3598;BME280;1813;52.016;8.714;2023-07-29T00:48:28;-16261.94;;;-139.71;81.90
3598;BME280;1813;52.016;8.714;2023-07-29T00:51:02;-16261.94;;;-139.71;81.80
3598;BME280;1813;52.016;8.714;2023-07-29T00:53:38;-16261.94;;;-139.71;81.68
3598;BME280;1813;52.016;8.714;2023-07-29T00:56:11;-16261.94;;;-139.71;81.73
3598;BME280;1813;52.016;8.714;2023-07-29T00:58:47;-16261.94;;;-139.71;81.84
3598;BME280;1813;52.016;8.714;2023-07-29T01:01:22;-16261.94;;;-139.71;81.80
3598;BME280;1813;52.016;8.714;2023-07-29T01:03:57;-16261.94;;;-139.71;81.92
3598;BME280;1813;52.016;8.714;2023-07-29T01:06:41;-16261.94;;;-139.71;81.91
3598;BME280;1813;52.016;8.714;2023-07-29T01:09:31;-16261.94;;;-139.71;81.80
3598;BME280;1813;52.016;8.714;2023-07-29T01:12:11;-16261.94;;;-139.71;81.91
3598;BME280;1813;52.016;8.714;2023-07-29T01:14:55;-16261.94;;;-139.71;81.99
3598;BME280;1813;52.016;8.714;2023-07-29T01:17:35;-16261.94;;;-139.71;82.13
3598;BME280;1813;52.016;8.714;2023-07-29T01:20:14;-16261.94;;;-139.71;81.96
3598;BME280;1813;52.016;8.714;2023-07-29T01:22:50;-16261.94;;;-139.71;82.09
3598;BME280;1813;52.016;8.714;2023-07-29T01:25:27;-16261.94;;;-139.71;81.96
3598;BME280;1813;52.016;8.714;2023-07-29T01:28:01;-16261.94;;;-139.71;81.66
3598;BME280;1813;52.016;8.714;2023-07-29T01:30:39;-16261.94;;;-139.71;81.73
3598;BME280;1813;52.016;8.714;2023-07-29T01:33:17;-16261.94;;;-139.71;81.62
3598;BME280;1813;52.016;8.714;2023-07-29T01:35:57;-16261.94;;;-139.71;81.76
3598;BME280;1813;52.016;8.714;2023-07-29T01:38:33;-16261.94;;;-139.71;81.65
3598;BME280;1813;52.016;8.714;2023-07-29T01:41:11;-16261.94;;;-139.71;81.64
3598;BME280;1813;52.016;8.714;2023-07-29T01:43:46;-16261.94;;;-139.71;81.71
3598;BME280;1813;52.016;8.714;2023-07-29T01:46:20;-16261.94;;;-139.71;81.73
3598;BME280;1813;52.016;8.714;2023-07-29T01:48:55;-16261.94;;;-139.71;81.75
3598;BME280;1813;52.016;8.714;2023-07-29T01:51:29;-16261.94;;;-139.71;81.87
3598;BME280;1813;52.016;8.714;2023-07-29T01:54:02;-16261.94;;;-139.71;82.06
3598;BME280;1813;52.016;8.714;2023-07-29T01:56:39;-16261.94;;;-139.71;81.98
3598;BME280;1813;52.016;8.714;2023-07-29T01:59:13;-16261.94;;;-139.71;82.13
3598;BME280;1813;52.016;8.714;2023-07-29T02:01:47;-16261.94;;;-139.71;82.27
3598;BME280;1813;52.016;8.714;2023-07-29T02:04:21;-16261.94;;;-139.71;82.25
3598;BME280;1813;52.016;8.714;2023-07-29T02:06:55;-16261.94;;;-139.71;82.33
3598;BME280;1813;52.016;8.714;2023-07-29T02:09:28;-16261.94;;;-139.71;82.72
3598;BME280;1813;52.016;8.714;2023-07-29T02:12:06;-16261.94;;;-139.71;82.75
3598;BME280;1813;52.016;8.714;2023-07-29T02:14:43;-16261.94;;;-139.71;82.91
3598;BME280;1813;52.016;8.714;2023-07-29T02:17:16;-16261.94;;;-139.71;83.21
3598;BME280;1813;52.016;8.714;2023-07-29T02:19:50;-16261.94;;;-139.71;83.13
3598;BME280;1813;52.016;8.714;2023-07-29T02:22:24;-16261.94;;;-139.71;83.38
3598;BME280;1813;52.016;8.714;2023-07-29T02:24:58;-16261.94;;;-139.71;83.51
3598;BME280;1813;52.016;8.714;2023-07-29T02:27:35;-16261.94;;;-139.71;83.74
3598;BME280;1813;52.016;8.714;2023-07-29T02:30:10;-16261.94;;;-139.71;84.12
3598;BME280;1813;52.016;8.714;2023-07-29T02:32:44;-16261.94;;;-139.71;84.24
3598;BME280;1813;52.016;8.714;2023-07-29T02:35:18;-16261.94;;;-139.71;84.23
3598;BME280;1813;52.016;8.714;2023-07-29T02:37:52;-16261.94;;;-139.71;84.21
3598;BME280;1813;52.016;8.714;2023-07-29T02:40:27;-16261.94;;;-139.71;84.48
3598;BME280;1813;52.016;8.714;2023-07-29T02:43:06;-16261.94;;;-139.71;84.49
3598;BME280;1813;52.016;8.714;2023-07-29T02:45:41;-16261.94;;;-139.71;84.65
3598;BME280;1813;52.016;8.714;2023-07-29T02:48:14;-16261.94;;;-139.71;85.02
3598;BME280;1813;52.016;8.714;2023-07-29T02:50:48;-16261.94;;;-139.71;84.87
3598;BME280;1813;52.016;8.714;2023-07-29T02:53:22;-16261.94;;;-139.71;85.31
3598;BME280;1813;52.016;8.714;2023-07-29T02:55:56;-16261.94;;;-139.71;85.30
3598;BME280;1813;52.016;8.714;2023-07-29T02:58:33;-16261.94;;;-139.71;85.20
3598;BME280;1813;52.016;8.714;2023-07-29T03:01:06;-16261.94;;;-139.71;85.24
3598;BME280;1813;52.016;8.714;2023-07-29T03:03:41;-16261.94;;;-139.71;84.83
3598;BME280;1813;52.016;8.714;2023-07-29T03:06:14;-16261.94;;;-139.71;84.51
3598;BME280;1813;52.016;8.714;2023-07-29T03:08:49;-16261.94;;;-139.71;84.07
3598;BME280;1813;52.016;8.714;2023-07-29T03:11:22;-16261.94;;;-139.71;83.63
3598;BME280;1813;52.016;8.714;2023-07-29T03:13:59;-16261.94;;;-139.71;83.04
3598;BME280;1813;52.016;8.714;2023-07-29T03:16:34;-16261.94;;;-139.71;82.97
3598;BME280;1813;52.016;8.714;2023-07-29T03:19:08;-16261.94;;;-139.71;83.11
3598;BME280;1813;52.016;8.714;2023-07-29T03:21:42;-16261.94;;;-139.71;83.12
3598;BME280;1813;52.016;8.714;2023-07-29T03:24:16;-16261.94;;;-139.71;82.80
3598;BME280;1813;52.016;8.714;2023-07-29T03:26:50;-16261.94;;;-139.71;82.67
3598;BME280;1813;52.016;8.714;2023-07-29T03:29:27;-16261.94;;;-139.71;82.73
3598;BME280;1813;52.016;8.714;2023-07-29T03:32:00;-16261.94;;;-139.71;82.78
3598;BME280;1813;52.016;8.714;2023-07-29T03:34:34;-16261.94;;;-139.71;83.26
3598;BME280;1813;52.016;8.714;2023-07-29T03:37:09;-16261.94;;;-139.71;83.22
3598;BME280;1813;52.016;8.714;2023-07-29T03:39:43;-16261.94;;;-139.71;83.22
3598;BME280;1813;52.016;8.714;2023-07-29T03:42:17;-16261.94;;;-139.71;83.69
3598;BME280;1813;52.016;8.714;2023-07-29T03:44:54;-16261.94;;;-139.71;83.64
3598;BME280;1813;52.016;8.714;2023-07-29T03:47:27;-16261.94;;;-139.71;83.42
3598;BME280;1813;52.016;8.714;2023-07-29T03:50:03;-16261.94;;;-139.71;83.66
3598;BME280;1813;52.016;8.714;2023-07-29T03:52:38;-16261.94;;;-139.71;83.47
3598;BME280;1813;52.016;8.714;2023-07-29T03:55:12;-16261.94;;;-139.71;84.04
3598;BME280;1813;52.016;8.714;2023-07-29T03:57:46;-16261.94;;;-139.71;83.88
3598;BME280;1813;52.016;8.714;2023-07-29T04:00:23;-16261.94;;;-139.71;83.96
3598;BME280;1813;52.016;8.714;2023-07-29T04:02:57;-16261.94;;;-139.71;84.71
3598;BME280;1813;52.016;8.714;2023-07-29T04:05:31;-16261.94;;;-139.71;85.01
3598;BME280;1813;52.016;8.714;2023-07-29T04:08:05;-16261.94;;;-139.71;84.44
3598;BME280;1813;52.016;8.714;2023-07-29T04:10:39;-16261.94;;;-139.71;84.74
3598;BME280;1813;52.016;8.714;2023-07-29T04:13:12;-16261.94;;;-139.71;84.50
3598;BME280;1813;52.016;8.714;2023-07-29T04:15:49;-16261.94;;;-139.71;84.61
3598;BME280;1813;52.016;8.714;2023-07-29T04:18:23;-16261.94;;;-139.71;85.05
3598;BME280;1813;52.016;8.714;2023-07-29T04:20:57;-16261.94;;;-139.71;85.00
3598;BME280;1813;52.016;8.714;2023-07-29T04:23:31;-16261.94;;;-139.71;84.78
3598;BME280;1813;52.016;8.714;2023-07-29T04:26:06;-16261.94;;;-139.71;84.81
3598;BME280;1813;52.016;8.714;2023-07-29T04:28:39;-16261.94;;;-139.71;85.30
3598;BME280;1813;52.016;8.714;2023-07-29T04:31:16;-16261.94;;;-139.71;85.35
3598;BME280;1813;52.016;8.714;2023-07-29T04:33:50;-16261.94;;;-139.71;85.32
3598;BME280;1813;52.016;8.714;2023-07-29T04:36:24;-16261.94;;;-139.71;85.40
3598;BME280;1813;52.016;8.714;2023-07-29T04:38:58;-16261.94;;;-139.71;85.39
3598;BME280;1813;52.016;8.714;2023-07-29T04:41:32;-16261.94;;;-139.71;85.65
3598;BME280;1813;52.016;8.714;2023-07-29T04:44:07;-16261.94;;;-139.71;85.84
3598;BME280;1813;52.016;8.714;2023-07-29T04:46:43;-16261.94;;;-139.71;86.20
3598;BME280;1813;52.016;8.714;2023-07-29T04:49:17;-16261.94;;;-139.71;86.47
3598;BME280;1813;52.016;8.714;2023-07-29T04:51:51;-16261.94;;;-139.71;86.52
3598;BME280;1813;52.016;8.714;2023-07-29T04:54:25;-16261.94;;;-139.71;86.79
3598;BME280;1813;52.016;8.714;2023-07-29T04:56:59;-16261.94;;;-139.71;86.97
3598;BME280;1813;52.016;8.714;2023-07-29T04:59:32;-16261.94;;;-139.71;87.34
3598;BME280;1813;52.016;8.714;2023-07-29T05:02:08;-16261.94;;;-139.71;87.74
3598;BME280;1813;52.016;8.714;2023-07-29T05:04:42;-16261.94;;;-139.71;87.78
3598;BME280;1813;52.016;8.714;2023-07-29T05:07:16;-16261.94;;;-139.71;88.35
3598;BME280;1813;52.016;8.714;2023-07-29T05:09:49;-16261.94;;;-139.71;88.12
3598;BME280;1813;52.016;8.714;2023-07-29T05:12:23;-16261.94;;;-139.71;88.28
3598;BME280;1813;52.016;8.714;2023-07-29T05:14:57;-16261.94;;;-139.71;88.06
3598;BME280;1813;52.016;8.714;2023-07-29T05:17:34;-16261.94;;;-139.71;88.19
3598;BME280;1813;52.016;8.714;2023-07-29T05:20:09;-16261.94;;;-139.71;88.46
3598;BME280;1813;52.016;8.714;2023-07-29T05:22:43;-16261.94;;;-139.71;88.30
3598;BME280;1813;52.016;8.714;2023-07-29T05:25:17;-16261.94;;;-139.71;88.07
3598;BME280;1813;52.016;8.714;2023-07-29T05:27:51;-16261.94;;;-139.71;88.45
3598;BME280;1813;52.016;8.714;2023-07-29T05:30:25;-16261.94;;;-139.71;88.53
3598;BME280;1813;52.016;8.714;2023-07-29T05:33:04;-16261.94;;;-139.71;88.52
3598;BME280;1813;52.016;8.714;2023-07-29T05:35:38;-16261.94;;;-139.71;88.68
3598;BME280;1813;52.016;8.714;2023-07-29T05:38:12;-16261.94;;;-139.71;88.68
3598;BME280;1813;52.016;8.714;2023-07-29T05:40:48;-16261.94;;;-139.71;89.00
3598;BME280;1813;52.016;8.714;2023-07-29T05:43:23;-16261.94;;;-139.71;88.89
3598;BME280;1813;52.016;8.714;2023-07-29T05:45:57;-16261.94;;;-139.71;88.81
3598;BME280;1813;52.016;8.714;2023-07-29T05:48:34;-16261.94;;;-139.71;88.98
3598;BME280;1813;52.016;8.714;2023-07-29T05:51:11;-16261.94;;;-139.71;89.20
3598;BME280;1813;52.016;8.714;2023-07-29T05:53:45;-16261.94;;;-139.71;88.60
3598;BME280;1813;52.016;8.714;2023-07-29T05:56:19;-16261.94;;;-139.71;88.76
3598;BME280;1813;52.016;8.714;2023-07-29T05:58:52;-16261.94;;;-139.71;88.64
3598;BME280;1813;52.016;8.714;2023-07-29T06:01:26;-16261.94;;;-139.71;88.50
3598;BME280;1813;52.016;8.714;2023-07-29T06:04:03;-16261.94;;;-139.71;88.71
3598;BME280;1813;52.016;8.714;2023-07-29T06:06:37;-16261.94;;;-139.71;88.49
3598;BME280;1813;52.016;8.714;2023-07-29T06:09:11;-16261.94;;;-139.71;88.35
3598;BME280;1813;52.016;8.714;2023-07-29T06:11:45;-16261.94;;;-139.71;88.33
3598;BME280;1813;52.016;8.714;2023-07-29T06:14:18;-16261.94;;;-139.71;88.05
3598;BME280;1813;52.016;8.714;2023-07-29T06:16:52;-16261.94;;;-139.71;87.74
3598;BME280;1813;52.016;8.714;2023-07-29T06:19:29;-16261.94;;;-139.71;87.88
3598;BME280;1813;52.016;8.714;2023-07-29T06:22:03;-16261.94;;;-139.71;87.88
3598;BME280;1813;52.016;8.714;2023-07-29T06:24:37;-16261.94;;;-139.71;88.07
3598;BME280;1813;52.016;8.714;2023-07-29T06:27:11;-16261.94;;;-139.71;88.16
3598;BME280;1813;52.016;8.714;2023-07-29T06:29:45;-16261.94;;;-139.71;88.11
3598;BME280;1813;52.016;8.714;2023-07-29T06:32:18;-16261.94;;;-139.71;88.12
3598;BME280;1813;52.016;8.714;2023-07-29T06:34:55;-16261.94;;;-139.71;88.00
3598;BME280;1813;52.016;8.714;2023-07-29T06:37:29;-16261.94;;;-139.71;87.80
3598;BME280;1813;52.016;8.714;2023-07-29T06:40:05;-16261.94;;;-139.71;87.70
3598;BME280;1813;52.016;8.714;2023-07-29T06:42:39;-16261.94;;;-139.71;87.66
3598;BME280;1813;52.016;8.714;2023-07-29T06:45:13;-16261.94;;;-139.71;87.90
3598;BME280;1813;52.016;8.714;2023-07-29T06:47:46;-16261.94;;;-139.71;88.01
3598;BME280;1813;52.016;8.714;2023-07-29T06:50:23;-16261.94;;;-139.71;87.99
3598;BME280;1813;52.016;8.714;2023-07-29T06:52:56;-16261.94;;;-139.71;88.24
3598;BME280;1813;52.016;8.714;2023-07-29T06:55:30;-16261.94;;;-139.71;88.38
3598;BME280;1813;52.016;8.714;2023-07-29T06:58:04;-16261.94;;;-139.71;88.64
3598;BME280;1813;52.016;8.714;2023-07-29T07:00:38;-16261.94;;;-139.71;88.37
3598;BME280;1813;52.016;8.714;2023-07-29T07:03:12;-16261.94;;;-139.71;88.53
3598;BME280;1813;52.016;8.714;2023-07-29T07:05:48;-16261.94;;;-139.71;88.58
3598;BME280;1813;52.016;8.714;2023-07-29T07:08:22;-16261.94;;;-139.71;88.26
3598;BME280;1813;52.016;8.714;2023-07-29T07:10:56;-16261.94;;;-139.71;87.81
3598;BME280;1813;52.016;8.714;2023-07-29T07:13:30;-16261.94;;;-139.71;87.77
3598;BME280;1813;52.016;8.714;2023-07-29T07:16:04;-16261.94;;;-139.71;87.83
3598;BME280;1813;52.016;8.714;2023-07-29T07:18:38;-16261.94;;;-139.71;87.79
3598;BME280;1813;52.016;8.714;2023-07-29T07:21:14;-16261.94;;;-139.71;88.21
3598;BME280;1813;52.016;8.714;2023-07-29T07:23:49;-16261.94;;;-139.71;88.08
3598;BME280;1813;52.016;8.714;2023-07-29T07:26:23;-16261.94;;;-139.71;87.96
3598;BME280;1813;52.016;8.714;2023-07-29T07:28:57;-16261.94;;;-139.71;87.88
3598;BME280;1813;52.016;8.714;2023-07-29T07:31:33;-16261.94;;;-139.71;88.00
3598;BME280;1813;52.016;8.714;2023-07-29T07:34:07;-16261.94;;;-139.71;88.22
3598;BME280;1813;52.016;8.714;2023-07-29T07:36:43;-16261.94;;;-139.71;88.61
3598;BME280;1813;52.016;8.714;2023-07-29T07:39:17;-16261.94;;;-139.71;89.18
3598;BME280;1813;52.016;8.714;2023-07-29T07:41:51;-16261.94;;;-139.71;89.88
3598;BME280;1813;52.016;8.714;2023-07-29T07:44:25;-16261.94;;;-139.71;89.91
3598;BME280;1813;52.016;8.714;2023-07-29T07:46:59;-16261.94;;;-139.71;90.07
3598;BME280;1813;52.016;8.714;2023-07-29T07:49:33;-16261.94;;;-139.71;90.41
3598;BME280;1813;52.016;8.714;2023-07-29T07:52:10;-16261.94;;;-139.71;90.24
3598;BME280;1813;52.016;8.714;2023-07-29T07:54:43;-16261.94;;;-139.71;89.74
3598;BME280;1813;52.016;8.714;2023-07-29T07:57:17;-16261.94;;;-139.71;89.52
3598;BME280;1813;52.016;8.714;2023-07-29T07:59:51;-16261.94;;;-139.71;89.55
3598;BME280;1813;52.016;8.714;2023-07-29T08:02:25;-16261.94;;;-139.71;88.86
3598;BME280;1813;52.016;8.714;2023-07-29T08:04:59;-16261.94;;;-139.71;88.59
3598;BME280;1813;52.016;8.714;2023-07-29T08:07:38;-16261.94;;;-139.71;88.81
3598;BME280;1813;52.016;8.714;2023-07-29T08:10:12;-16261.94;;;-139.71;89.19
3598;BME280;1813;52.016;8.714;2023-07-29T08:12:46;-16261.94;;;-139.71;88.59
3598;BME280;1813;52.016;8.714;2023-07-29T08:15:19;-16261.94;;;-139.71;87.84
3598;BME280;1813;52.016;8.714;2023-07-29T08:17:53;-16261.94;;;-139.71;85.77
3598;BME280;1813;52.016;8.714;2023-07-29T08:20:27;-16261.94;;;-139.71;83.17
3598;BME280;1813;52.016;8.714;2023-07-29T08:23:04;-16261.94;;;-139.71;82.12
3598;BME280;1813;52.016;8.714;2023-07-29T08:25:37;-16261.94;;;-139.71;82.14
3598;BME280;1813;52.016;8.714;2023-07-29T08:28:11;-16261.94;;;-139.71;81.93
3598;BME280;1813;52.016;8.714;2023-07-29T08:30:45;-16261.94;;;-139.71;81.26
3598;BME280;1813;52.016;8.714;2023-07-29T08:33:19;-16261.94;;;-139.71;80.33
3598;BME280;1813;52.016;8.714;2023-07-29T08:35:53;-16261.94;;;-139.71;79.54
3598;BME280;1813;52.016;8.714;2023-07-29T08:38:29;-16261.94;;;-139.71;79.22
3598;BME280;1813;52.016;8.714;2023-07-29T08:41:10;-16261.94;;;-139.71;78.79
3598;BME280;1813;52.016;8.714;2023-07-29T08:43:51;-16261.94;;;-139.71;78.31
3598;BME280;1813;52.016;8.714;2023-07-29T08:46:26;-16261.94;;;-139.71;78.70
3598;BME280;1813;52.016;8.714;2023-07-29T08:49:00;-16261.94;;;-139.71;77.12
3598;BME280;1813;52.016;8.714;2023-07-29T08:51:35;-16261.94;;;-139.71;76.35
3598;BME280;1813;52.016;8.714;2023-07-29T08:54:12;-16261.94;;;-139.71;76.84
3598;BME280;1813;52.016;8.714;2023-07-29T08:56:46;-16261.94;;;-139.71;70.96
3598;BME280;1813;52.016;8.714;2023-07-29T08:59:21;-16261.94;;;-139.71;68.54
3598;BME280;1813;52.016;8.714;2023-07-29T09:01:55;-16261.94;;;-139.71;69.08
3598;BME280;1813;52.016;8.714;2023-07-29T09:04:30;-16261.94;;;-139.71;68.59
3598;BME280;1813;52.016;8.714;2023-07-29T09:07:05;-16261.94;;;-139.71;68.53
3598;BME280;1813;52.016;8.714;2023-07-29T09:09:43;-16261.94;;;-139.71;68.96
3598;BME280;1813;52.016;8.714;2023-07-29T09:12:17;-16261.94;;;-139.71;68.94
3598;BME280;1813;52.016;8.714;2023-07-29T09:14:53;-16261.94;;;-139.71;64.85
3598;BME280;1813;52.016;8.714;2023-07-29T09:17:31;-16261.94;;;-139.71;61.48
3598;BME280;1813;52.016;8.714;2023-07-29T09:20:06;-16261.94;;;-139.71;57.54
3598;BME280;1813;52.016;8.714;2023-07-29T09:22:43;-16261.94;;;-139.71;55.92
3598;BME280;1813;52.016;8.714;2023-07-29T09:25:25;-16261.94;;;-139.71;54.80
3598;BME280;1813;52.016;8.714;2023-07-29T09:27:59;-16261.94;;;-139.71;56.09
3598;BME280;1813;52.016;8.714;2023-07-29T09:30:33;-16261.94;;;-139.71;55.55
3598;BME280;1813;52.016;8.714;2023-07-29T09:33:07;-16261.94;;;-139.71;54.20
3598;BME280;1813;52.016;8.714;2023-07-29T09:35:41;-16261.94;;;-139.71;52.74
3598;BME280;1813;52.016;8.714;2023-07-29T09:38:15;-16261.94;;;-139.71;53.32
3598;BME280;1813;52.016;8.714;2023-07-29T09:40:55;-16261.94;;;-139.71;52.46
3598;BME280;1813;52.016;8.714;2023-07-29T09:43:31;-16261.94;;;-139.71;52.84
3598;BME280;1813;52.016;8.714;2023-07-29T09:46:05;-16261.94;;;-139.71;52.88
3598;BME280;1813;52.016;8.714;2023-07-29T09:48:40;-16261.94;;;-139.71;52.18
3598;BME280;1813;52.016;8.714;2023-07-29T09:51:16;-16261.94;;;-139.71;51.38
3598;BME280;1813;52.016;8.714;2023-07-29T09:53:51;-16261.94;;;-139.71;51.45
3598;BME280;1813;52.016;8.714;2023-07-29T09:56:28;-16261.94;;;-139.71;50.18
3598;BME280;1813;52.016;8.714;2023-07-29T09:59:04;-16261.94;;;-139.71;50.03
3598;BME280;1813;52.016;8.714;2023-07-29T10:01:38;-16261.94;;;-139.71;49.46
3598;BME280;1813;52.016;8.714;2023-07-29T10:04:13;-16261.94;;;-139.71;49.38
3598;BME280;1813;52.016;8.714;2023-07-29T10:06:50;-16261.94;;;-139.71;48.78
3598;BME280;1813;52.016;8.714;2023-07-29T10:09:26;-16261.94;;;-139.71;51.12
3598;BME280;1813;52.016;8.714;2023-07-29T10:12:06;-16261.94;;;-139.71;50.34
3598;BME280;1813;52.016;8.714;2023-07-29T10:14:41;-16261.94;;;-139.71;49.54
3598;BME280;1813;52.016;8.714;2023-07-29T10:17:16;-16261.94;;;-139.71;49.76
3598;BME280;1813;52.016;8.714;2023-07-29T10:19:50;-16261.94;;;-139.71;49.53
3598;BME280;1813;52.016;8.714;2023-07-29T10:22:28;-16261.94;;;-139.71;49.15
3598;BME280;1813;52.016;8.714;2023-07-29T10:25:04;-16261.94;;;-139.71;48.40
3598;BME280;1813;52.016;8.714;2023-07-29T10:27:47;-16261.94;;;-139.71;47.42
3598;BME280;1813;52.016;8.714;2023-07-29T10:30:24;-16261.94;;;-139.71;47.09
3598;BME280;1813;52.016;8.714;2023-07-29T10:33:01;-16261.94;;;-139.71;46.75
3598;BME280;1813;52.016;8.714;2023-07-29T10:35:35;-16261.94;;;-139.71;47.25
3598;BME280;1813;52.016;8.714;2023-07-29T10:38:11;-16261.94;;;-139.71;47.32
3598;BME280;1813;52.016;8.714;2023-07-29T10:40:46;-16261.94;;;-139.71;46.48
3598;BME280;1813;52.016;8.714;2023-07-29T10:43:27;-16261.94;;;-139.71;48.14
3598;BME280;1813;52.016;8.714;2023-07-29T10:46:22;-16261.94;;;-139.71;47.47
3598;BME280;1813;52.016;8.714;2023-07-29T10:48:57;-16261.94;;;-139.71;46.53
3598;BME280;1813;52.016;8.714;2023-07-29T10:51:34;-16261.94;;;-139.71;46.98
3598;BME280;1813;52.016;8.714;2023-07-29T10:54:11;-16261.94;;;-139.71;46.95
3598;BME280;1813;52.016;8.714;2023-07-29T10:56:48;-16261.94;;;-139.71;46.40
3598;BME280;1813;52.016;8.714;2023-07-29T10:59:34;-16261.94;;;-139.71;44.74
3598;BME280;1813;52.016;8.714;2023-07-29T11:02:17;-16261.94;;;-139.71;44.76
3598;BME280;1813;52.016;8.714;2023-07-29T11:04:51;-16261.94;;;-139.71;44.17
3598;BME280;1813;52.016;8.714;2023-07-29T11:07:26;-16261.94;;;-139.71;43.18
3598;BME280;1813;52.016;8.714;2023-07-29T11:10:01;-16261.94;;;-139.71;45.73
3598;BME280;1813;52.016;8.714;2023-07-29T11:12:41;-16261.94;;;-139.71;44.23
3598;BME280;1813;52.016;8.714;2023-07-29T11:15:27;-16261.94;;;-139.71;44.24
3598;BME280;1813;52.016;8.714;2023-07-29T11:18:02;-16261.94;;;-139.71;43.95
3598;BME280;1813;52.016;8.714;2023-07-29T11:20:36;-16261.94;;;-139.71;44.43
3598;BME280;1813;52.016;8.714;2023-07-29T11:23:10;-16261.94;;;-139.71;43.61
3598;BME280;1813;52.016;8.714;2023-07-29T11:25:45;-16261.94;;;-139.71;43.33
3598;BME280;1813;52.016;8.714;2023-07-29T11:28:21;-16261.94;;;-139.71;43.93
3598;BME280;1813;52.016;8.714;2023-07-29T11:31:00;-16261.94;;;-139.71;44.38
3598;BME280;1813;52.016;8.714;2023-07-29T11:33:34;-16261.94;;;-139.71;43.53
3598;BME280;1813;52.016;8.714;2023-07-29T11:36:17;-16261.94;;;-139.71;43.49
3598;BME280;1813;52.016;8.714;2023-07-29T11:38:51;-16261.94;;;-139.71;44.39
3598;BME280;1813;52.016;8.714;2023-07-29T11:41:25;-16261.94;;;-139.71;43.83
3598;BME280;1813;52.016;8.714;2023-07-29T11:44:00;-16261.94;;;-139.71;43.86
3598;BME280;1813;52.016;8.714;2023-07-29T11:46:37;-16261.94;;;-139.71;43.83
3598;BME280;1813;52.016;8.714;2023-07-29T11:49:13;-16261.94;;;-139.71;46.20
3598;BME280;1813;52.016;8.714;2023-07-29T11:51:47;-16261.94;;;-139.71;44.42
3598;BME280;1813;52.016;8.714;2023-07-29T11:54:23;-16261.94;;;-139.71;44.09
3598;BME280;1813;52.016;8.714;2023-07-29T11:56:57;-16261.94;;;-139.71;43.18
3598;BME280;1813;52.016;8.714;2023-07-29T11:59:31;-16261.94;;;-139.71;43.97
3598;BME280;1813;52.016;8.714;2023-07-29T12:02:11;-16261.94;;;-139.71;44.73
3598;BME280;1813;52.016;8.714;2023-07-29T12:04:47;-16261.94;;;-139.71;45.17
3598;BME280;1813;52.016;8.714;2023-07-29T12:07:21;-16261.94;;;-139.71;45.05
3598;BME280;1813;52.016;8.714;2023-07-29T12:09:55;-16261.94;;;-139.71;44.21
3598;BME280;1813;52.016;8.714;2023-07-29T12:12:29;-16261.94;;;-139.71;44.95
3598;BME280;1813;52.016;8.714;2023-07-29T12:15:04;-16261.94;;;-139.71;44.05
3598;BME280;1813;52.016;8.714;2023-07-29T12:17:42;-16261.94;;;-139.71;44.08
3598;BME280;1813;52.016;8.714;2023-07-29T12:20:19;-16261.94;;;-139.71;43.30
3598;BME280;1813;52.016;8.714;2023-07-29T12:22:55;-16261.94;;;-139.71;43.50
3598;BME280;1813;52.016;8.714;2023-07-29T12:25:30;-16261.94;;;-139.71;43.82
3598;BME280;1813;52.016;8.714;2023-07-29T12:28:05;-16261.94;;;-139.71;43.16
3598;BME280;1813;52.016;8.714;2023-07-29T12:30:41;-16261.94;;;-139.71;43.51
3598;BME280;1813;52.016;8.714;2023-07-29T12:33:34;-16261.94;;;-139.71;43.58
3598;BME280;1813;52.016;8.714;2023-07-29T12:36:09;-16261.94;;;-139.71;43.35
3598;BME280;1813;52.016;8.714;2023-07-29T12:38:45;-16261.94;;;-139.71;43.99
3598;BME280;1813;52.016;8.714;2023-07-29T12:41:19;-16261.94;;;-139.71;43.81
3598;BME280;1813;52.016;8.714;2023-07-29T12:43:52;-16261.94;;;-139.71;44.43
3598;BME280;1813;52.016;8.714;2023-07-29T12:46:29;-16261.94;;;-139.71;44.00
3598;BME280;1813;52.016;8.714;2023-07-29T12:49:06;-16261.94;;;-139.71;44.27
3598;BME280;1813;52.016;8.714;2023-07-29T12:51:40;-16261.94;;;-139.71;44.62
3598;BME280;1813;52.016;8.714;2023-07-29T12:54:14;-16261.94;;;-139.71;44.41
3598;BME280;1813;52.016;8.714;2023-07-29T12:56:48;-16261.94;;;-139.71;45.04
3598;BME280;1813;52.016;8.714;2023-07-29T12:59:23;-16261.94;;;-139.71;45.84
3598;BME280;1813;52.016;8.714;2023-07-29T13:01:57;-16261.94;;;-139.71;44.55
3598;BME280;1813;52.016;8.714;2023-07-29T13:04:34;-16261.94;;;-139.71;44.38
3598;BME280;1813;52.016;8.714;2023-07-29T13:07:08;-16261.94;;;-139.71;44.77
3598;BME280;1813;52.016;8.714;2023-07-29T13:09:42;-16261.94;;;-139.71;45.13
3598;BME280;1813;52.016;8.714;2023-07-29T13:12:15;-16261.94;;;-139.71;45.64
3598;BME280;1813;52.016;8.714;2023-07-29T13:14:49;-16261.94;;;-139.71;46.39
3598;BME280;1813;52.016;8.714;2023-07-29T13:17:24;-16261.94;;;-139.71;46.50
3598;BME280;1813;52.016;8.714;2023-07-29T13:20:01;-16261.94;;;-139.71;47.25
3598;BME280;1813;52.016;8.714;2023-07-29T13:22:35;-16261.94;;;-139.71;47.25
3598;BME280;1813;52.016;8.714;2023-07-29T13:25:09;-16261.94;;;-139.71;49.62
3598;BME280;1813;52.016;8.714;2023-07-29T13:27:43;-16261.94;;;-139.71;48.13
3598;BME280;1813;52.016;8.714;2023-07-29T13:30:17;-16261.94;;;-139.71;47.86
3598;BME280;1813;52.016;8.714;2023-07-29T13:32:51;-16261.94;;;-139.71;47.54